createdAt,value
2022-08-28T00:00:48.554Z,16.50
2022-08-28T00:03:35.237Z,16.50
2022-08-28T00:06:21.487Z,16.60
2022-08-28T00:09:08.100Z,16.60
2022-08-28T00:11:57.821Z,16.60
2022-08-28T00:14:43.874Z,16.60
2022-08-28T00:17:30.310Z,16.70
2022-08-28T00:20:18.727Z,16.70
2022-08-28T00:23:06.677Z,16.80
2022-08-28T00:25:53.272Z,16.70
2022-08-28T00:28:39.449Z,16.70
2022-08-28T00:31:25.572Z,16.70
2022-08-28T00:34:12.463Z,16.70
2022-08-28T00:36:58.662Z,16.70
2022-08-28T00:39:44.788Z,16.70
2022-08-28T00:42:34.099Z,16.70
2022-08-28T00:45:20.685Z,16.70
2022-08-28T00:48:07.281Z,16.70
2022-08-28T00:51:12.218Z,16.60
2022-08-28T00:54:01.387Z,16.70
2022-08-28T00:56:52.086Z,16.70
2022-08-28T00:59:38.346Z,16.80
2022-08-28T01:02:24.598Z,16.90
2022-08-28T01:05:11.532Z,17.00
2022-08-28T01:07:58.906Z,16.90
2022-08-28T01:10:50.405Z,16.90
2022-08-28T01:13:39.774Z,16.90
2022-08-28T01:16:31.601Z,16.90
2022-08-28T01:19:28.910Z,16.90
2022-08-28T01:22:39.406Z,16.90
2022-08-28T01:25:30.677Z,16.80
2022-08-28T01:28:16.933Z,16.80
2022-08-28T01:31:03.089Z,16.80
2022-08-28T01:33:49.769Z,16.80
2022-08-28T01:36:36.163Z,16.80
2022-08-28T01:39:24.405Z,16.70
2022-08-28T01:42:10.787Z,16.70
2022-08-28T01:44:57.165Z,16.70
2022-08-28T01:47:45.056Z,16.70
2022-08-28T01:50:31.841Z,16.70
2022-08-28T01:53:24.844Z,16.80
2022-08-28T01:56:15.532Z,16.80
2022-08-28T01:59:04.221Z,17.00
2022-08-28T02:01:50.185Z,17.10
2022-08-28T02:04:38.270Z,17.10
2022-08-28T02:07:24.508Z,17.10
2022-08-28T02:10:11.968Z,17.10
2022-08-28T02:12:59.761Z,17.10
2022-08-28T02:15:46.056Z,17.00
2022-08-28T02:18:32.446Z,16.90
2022-08-28T02:21:18.666Z,16.90
2022-08-28T02:24:05.140Z,17.00
2022-08-28T02:26:51.333Z,17.00
2022-08-28T02:29:39.093Z,17.00
2022-08-28T02:32:26.617Z,17.00
2022-08-28T02:35:15.696Z,17.00
2022-08-28T02:38:01.693Z,17.10
2022-08-28T02:40:48.403Z,17.20
2022-08-28T02:43:34.937Z,17.30
2022-08-28T02:46:21.081Z,17.40
2022-08-28T02:49:07.478Z,17.40
2022-08-28T02:51:55.108Z,17.40
2022-08-28T02:54:41.185Z,17.40
2022-08-28T02:57:27.432Z,17.50
2022-08-28T03:00:17.298Z,17.40
2022-08-28T03:03:03.666Z,17.40
2022-08-28T03:05:50.143Z,17.40
2022-08-28T03:08:36.279Z,17.40
2022-08-28T03:11:23.405Z,17.40
2022-08-28T03:14:09.765Z,17.40
2022-08-28T03:16:55.930Z,17.40
2022-08-28T03:19:41.805Z,17.50
2022-08-28T03:22:46.134Z,17.50
2022-08-28T03:25:32.259Z,17.50
2022-08-28T03:28:19.167Z,17.50
2022-08-28T03:31:10.368Z,17.40
2022-08-28T03:33:57.538Z,17.40
2022-08-28T03:36:44.076Z,17.40
2022-08-28T03:39:30.318Z,17.40
2022-08-28T03:42:16.555Z,17.50
2022-08-28T03:45:03.054Z,17.50
2022-08-28T03:47:49.653Z,17.50
2022-08-28T03:50:37.143Z,17.40
2022-08-28T03:53:25.451Z,17.40
2022-08-28T03:56:16.106Z,17.30
2022-08-28T03:59:05.204Z,17.20
2022-08-28T04:01:51.921Z,17.20
2022-08-28T04:04:38.128Z,17.20
2022-08-28T04:07:24.097Z,17.10
2022-08-28T04:10:12.140Z,17.10
2022-08-28T04:12:58.121Z,17.10
2022-08-28T04:15:44.376Z,17.10
2022-08-28T04:18:31.550Z,17.10
2022-08-28T04:21:23.573Z,17.20
2022-08-28T04:24:10.041Z,17.30
2022-08-28T04:26:56.345Z,17.30
2022-08-28T04:29:42.280Z,17.40
2022-08-28T04:32:28.464Z,17.40
2022-08-28T04:35:15.553Z,17.50
2022-08-28T04:38:03.365Z,17.50
2022-08-28T04:40:51.792Z,17.50
2022-08-28T04:43:37.889Z,17.50
2022-08-28T04:46:24.245Z,17.50
2022-08-28T04:49:11.891Z,17.50
2022-08-28T04:51:58.306Z,17.50
2022-08-28T04:54:44.090Z,17.50
2022-08-28T04:57:35.708Z,17.50
2022-08-28T05:00:23.712Z,17.50
2022-08-28T05:03:11.357Z,17.50
2022-08-28T05:05:57.866Z,17.50
2022-08-28T05:08:43.856Z,17.50
2022-08-28T05:11:34.408Z,17.60
2022-08-28T05:14:21.833Z,17.60
2022-08-28T05:17:09.396Z,17.60
2022-08-28T05:19:55.645Z,17.60
2022-08-28T05:22:41.631Z,17.60
2022-08-28T05:25:27.417Z,17.60
2022-08-28T05:28:16.811Z,17.70
2022-08-28T05:31:16.389Z,17.60
2022-08-28T05:34:04.620Z,17.60
2022-08-28T05:36:53.245Z,17.60
2022-08-28T05:39:39.411Z,17.70
2022-08-28T05:42:30.709Z,17.70
2022-08-28T05:45:17.693Z,17.70
2022-08-28T05:48:03.830Z,17.70
2022-08-28T05:50:49.972Z,17.70
2022-08-28T05:53:38.723Z,17.70
2022-08-28T05:56:31.289Z,17.70
2022-08-28T05:59:17.213Z,17.70
2022-08-28T06:02:05.870Z,17.80
2022-08-28T06:04:53.598Z,17.80
2022-08-28T06:07:39.729Z,17.90
2022-08-28T06:10:25.929Z,17.90
2022-08-28T06:13:11.881Z,17.90
2022-08-28T06:15:59.014Z,17.90
2022-08-28T06:18:46.297Z,17.90
2022-08-28T06:21:33.552Z,17.90
2022-08-28T06:24:19.737Z,17.90
2022-08-28T06:27:06.230Z,17.90
2022-08-28T06:29:52.631Z,18.00
2022-08-28T06:32:38.729Z,17.90
2022-08-28T06:35:25.078Z,18.00
2022-08-28T06:38:12.247Z,18.00
2022-08-28T06:40:58.647Z,18.00
2022-08-28T06:43:44.766Z,18.00
2022-08-28T06:46:33.205Z,18.00
2022-08-28T06:49:20.055Z,18.00
2022-08-28T06:52:06.104Z,18.00
2022-08-28T06:54:55.904Z,18.10
2022-08-28T06:57:42.236Z,18.00
2022-08-28T07:00:28.105Z,18.00
2022-08-28T07:03:14.359Z,18.00
2022-08-28T07:06:05.846Z,18.00
2022-08-28T07:08:52.149Z,18.00
2022-08-28T07:11:39.651Z,18.00
2022-08-28T07:14:26.273Z,17.90
2022-08-28T07:17:13.222Z,17.90
2022-08-28T07:19:59.350Z,17.90
2022-08-28T07:22:45.373Z,17.80
2022-08-28T07:25:31.369Z,17.80
2022-08-28T07:28:17.977Z,17.80
2022-08-28T07:31:09.906Z,17.70
2022-08-28T07:33:56.569Z,17.70
2022-08-28T07:36:43.065Z,17.60
2022-08-28T07:39:29.048Z,17.50
2022-08-28T07:42:35.784Z,17.50
2022-08-28T07:45:22.280Z,17.50
2022-08-28T07:48:11.519Z,17.50
2022-08-28T07:50:58.212Z,17.50
2022-08-28T07:53:44.727Z,17.60
2022-08-28T07:56:31.223Z,17.60
2022-08-28T07:59:19.239Z,17.60
2022-08-28T08:02:06.850Z,17.70
2022-08-28T08:04:53.045Z,17.60
2022-08-28T08:07:42.261Z,17.70
2022-08-28T08:10:33.836Z,17.70
2022-08-28T08:13:20.665Z,17.70
2022-08-28T08:16:11.327Z,17.70
2022-08-28T08:18:58.034Z,17.70
2022-08-28T08:21:46.702Z,17.70
2022-08-28T08:24:33.514Z,17.70
2022-08-28T08:27:19.629Z,17.70
2022-08-28T08:30:06.178Z,17.80
2022-08-28T08:32:52.125Z,17.80
2022-08-28T08:35:40.700Z,17.80
2022-08-28T08:38:30.265Z,17.80
2022-08-28T08:41:51.782Z,17.80
2022-08-28T08:44:45.097Z,17.80
2022-08-28T08:47:56.229Z,17.80
2022-08-28T08:50:42.410Z,17.90
2022-08-28T08:53:54.759Z,17.90
2022-08-28T08:56:43.231Z,17.90
2022-08-28T08:59:33.328Z,17.90
2022-08-28T09:02:31.155Z,18.00
2022-08-28T09:05:22.670Z,18.00
2022-08-28T09:08:27.397Z,18.00
2022-08-28T09:11:41.081Z,18.10
2022-08-28T09:14:33.090Z,18.10
2022-08-28T09:17:25.085Z,18.10
2022-08-28T09:20:14.919Z,18.10
2022-08-28T09:23:01.987Z,18.10
2022-08-28T09:25:59.774Z,18.20
2022-08-28T09:29:06.343Z,18.10
2022-08-28T09:31:52.365Z,18.10
2022-08-28T09:34:39.267Z,18.20
2022-08-28T09:37:27.511Z,18.20
2022-08-28T09:40:20.353Z,18.20
2022-08-28T09:43:28.977Z,18.20
2022-08-28T09:46:24.576Z,18.20
2022-08-28T09:49:13.366Z,18.20
2022-08-28T09:52:16.185Z,18.20
2022-08-28T09:55:02.557Z,18.20
2022-08-28T09:57:48.850Z,18.20
2022-08-28T10:00:38.664Z,18.20
2022-08-28T10:03:37.473Z,18.20
2022-08-28T10:06:32.020Z,18.20
2022-08-28T10:09:36.517Z,18.30
2022-08-28T10:12:40.829Z,18.30
2022-08-28T10:15:45.948Z,18.30
2022-08-28T10:18:39.936Z,18.30
2022-08-28T10:21:56.254Z,18.30
2022-08-28T10:24:58.512Z,18.30
2022-08-28T10:27:53.729Z,18.30
2022-08-28T10:31:01.678Z,18.30
2022-08-28T10:33:50.925Z,18.30
2022-08-28T10:36:37.970Z,18.30
2022-08-28T10:39:45.741Z,18.30
2022-08-28T10:42:43.480Z,18.30
2022-08-28T10:45:32.146Z,18.30
2022-08-28T10:48:41.048Z,18.30
2022-08-28T10:51:35.199Z,18.30
2022-08-28T10:54:30.716Z,18.30
2022-08-28T10:57:40.018Z,18.30
2022-08-28T11:00:28.656Z,18.30
2022-08-28T11:03:33.994Z,18.30
2022-08-28T11:06:41.259Z,18.30
2022-08-28T11:09:47.726Z,18.40
2022-08-28T11:12:41.714Z,18.40
2022-08-28T11:15:34.209Z,18.60
2022-08-28T11:18:37.920Z,18.70
2022-08-28T11:21:28.928Z,18.70
2022-08-28T11:24:27.401Z,18.70
2022-08-28T11:27:25.765Z,18.70
2022-08-28T11:30:11.929Z,18.80
2022-08-28T11:33:03.125Z,18.90
2022-08-28T11:35:51.309Z,18.90
2022-08-28T11:38:43.421Z,19.00
2022-08-28T11:41:39.031Z,19.00
2022-08-28T11:44:37.991Z,19.10
2022-08-28T11:47:43.465Z,19.10
2022-08-28T11:50:32.671Z,19.10
2022-08-28T11:53:40.005Z,19.10
2022-08-28T11:56:58.542Z,19.10
2022-08-28T11:59:59.880Z,19.10
2022-08-28T12:02:49.715Z,19.10
2022-08-28T12:05:41.651Z,19.10
2022-08-28T12:08:56.731Z,19.20
2022-08-28T12:11:47.681Z,19.20
2022-08-28T12:14:33.982Z,19.20
2022-08-28T12:17:22.944Z,19.20
2022-08-28T12:20:21.106Z,19.20
2022-08-28T12:23:41.274Z,19.30
2022-08-28T12:26:38.587Z,19.30
2022-08-28T12:29:33.451Z,19.30
2022-08-28T12:32:44.497Z,19.40
2022-08-28T12:35:30.645Z,19.50
2022-08-28T12:38:22.074Z,19.40
2022-08-28T12:41:17.097Z,19.50
2022-08-28T12:44:06.466Z,19.50
2022-08-28T12:46:53.022Z,19.60
2022-08-28T12:49:39.036Z,19.70
2022-08-28T12:52:27.098Z,19.70
2022-08-28T12:55:13.172Z,19.80
2022-08-28T12:57:59.444Z,19.80
2022-08-28T13:00:56.346Z,19.80
2022-08-28T13:03:56.963Z,19.80
2022-08-28T13:06:43.700Z,19.80
2022-08-28T13:09:29.869Z,19.70
2022-08-28T13:12:54.531Z,19.70
2022-08-28T13:15:43.321Z,19.70
2022-08-28T13:18:46.014Z,19.80
2022-08-28T13:21:38.091Z,19.80
2022-08-28T13:24:45.803Z,19.70
2022-08-28T13:27:34.799Z,19.70
2022-08-28T13:30:33.489Z,19.60
2022-08-28T13:33:22.966Z,19.60
2022-08-28T13:36:24.801Z,19.70
2022-08-28T13:39:12.582Z,19.70
2022-08-28T13:42:06.059Z,19.70
2022-08-28T13:44:55.932Z,19.70
2022-08-28T13:47:41.948Z,19.80
2022-08-28T13:50:28.637Z,19.80
2022-08-28T13:53:16.859Z,19.80
2022-08-28T13:56:03.465Z,19.80
2022-08-28T13:58:57.489Z,19.80
2022-08-28T14:02:03.340Z,19.80
2022-08-28T14:04:49.947Z,19.90
2022-08-28T14:07:36.944Z,20.00
2022-08-28T14:10:23.559Z,20.10
2022-08-28T14:13:10.188Z,20.20
2022-08-28T14:15:57.329Z,20.20
2022-08-28T14:18:43.533Z,20.20
2022-08-28T14:21:29.900Z,20.30
2022-08-28T14:24:16.966Z,20.30
2022-08-28T14:27:02.961Z,20.30
2022-08-28T14:29:49.130Z,20.40
2022-08-28T14:32:35.802Z,20.50
2022-08-28T14:35:22.772Z,20.60
2022-08-28T14:38:09.902Z,20.70
2022-08-28T14:40:55.801Z,20.80
2022-08-28T14:43:42.438Z,20.90
2022-08-28T14:46:31.529Z,20.80
2022-08-28T14:49:18.831Z,20.60
2022-08-28T14:52:05.396Z,20.50
2022-08-28T14:54:51.858Z,20.20
2022-08-28T14:57:38.143Z,20.00
2022-08-28T15:00:24.045Z,19.90
2022-08-28T15:03:10.283Z,19.70
2022-08-28T15:06:05.666Z,19.60
2022-08-28T15:08:52.185Z,19.60
2022-08-28T15:11:39.264Z,19.60
2022-08-28T15:14:25.814Z,19.50
2022-08-28T15:17:12.077Z,19.60
2022-08-28T15:20:00.413Z,19.60
2022-08-28T15:22:46.458Z,19.70
2022-08-28T15:25:32.491Z,19.70
2022-08-28T15:28:19.071Z,19.80
2022-08-28T15:31:05.301Z,19.90
2022-08-28T15:33:51.857Z,20.00
2022-08-28T15:36:38.635Z,20.00
2022-08-28T15:39:46.236Z,20.10
2022-08-28T15:42:33.009Z,20.10
2022-08-28T15:45:20.251Z,20.20
2022-08-28T15:48:06.635Z,20.20
2022-08-28T15:50:52.786Z,20.20
2022-08-28T15:53:38.871Z,20.20
2022-08-28T15:56:25.847Z,20.30
2022-08-28T15:59:12.372Z,20.30
2022-08-28T16:01:58.702Z,20.30
2022-08-28T16:04:44.660Z,20.30
2022-08-28T16:07:30.729Z,20.30
2022-08-28T16:10:17.029Z,20.30
2022-08-28T16:13:04.686Z,20.30
2022-08-28T16:15:51.259Z,20.30
2022-08-28T16:18:37.626Z,20.30
2022-08-28T16:21:23.886Z,20.30
2022-08-28T16:24:14.398Z,20.30
2022-08-28T16:27:00.479Z,20.40
2022-08-28T16:29:46.416Z,20.50
2022-08-28T16:32:35.950Z,20.50
2022-08-28T16:35:22.636Z,20.50
2022-08-28T16:38:09.804Z,20.50
2022-08-28T16:40:56.392Z,20.50
2022-08-28T16:43:42.509Z,20.50
2022-08-28T16:46:28.668Z,20.50
2022-08-28T16:49:15.182Z,20.50
2022-08-28T16:52:02.106Z,20.40
2022-08-28T16:54:48.929Z,20.40
2022-08-28T16:57:37.689Z,20.40
2022-08-28T17:00:25.093Z,20.30
2022-08-28T17:03:11.355Z,20.30
2022-08-28T17:05:58.601Z,20.30
2022-08-28T17:08:44.873Z,20.30
2022-08-28T17:11:32.030Z,20.20
2022-08-28T17:14:18.229Z,20.20
2022-08-28T17:17:04.446Z,20.20
2022-08-28T17:19:50.767Z,20.20
2022-08-28T17:22:36.933Z,20.20
2022-08-28T17:25:23.920Z,20.20
2022-08-28T17:28:10.881Z,20.20
2022-08-28T17:30:57.539Z,20.20
2022-08-28T17:33:44.710Z,20.10
2022-08-28T17:36:33.133Z,20.10
2022-08-28T17:39:20.473Z,20.10
2022-08-28T17:42:06.566Z,20.00
2022-08-28T17:44:52.630Z,20.10
2022-08-28T17:47:38.553Z,20.00
2022-08-28T17:50:24.673Z,20.00
2022-08-28T17:53:11.021Z,20.00
2022-08-28T17:55:56.947Z,20.00
2022-08-28T17:58:43.371Z,19.90
2022-08-28T18:01:29.864Z,19.90
2022-08-28T18:04:21.655Z,20.00
2022-08-28T18:07:10.274Z,19.90
2022-08-28T18:09:56.734Z,19.90
2022-08-28T18:12:42.982Z,19.90
2022-08-28T18:15:29.058Z,19.80
2022-08-28T18:18:15.161Z,19.80
2022-08-28T18:21:02.445Z,19.70
2022-08-28T18:23:48.375Z,19.70
2022-08-28T18:26:34.841Z,19.60
2022-08-28T18:29:21.453Z,19.50
2022-08-28T18:32:07.974Z,19.50
2022-08-28T18:34:53.950Z,19.50
2022-08-28T18:37:40.025Z,19.50
2022-08-28T18:40:26.518Z,19.50
2022-08-28T18:43:13.327Z,19.40
2022-08-28T18:46:00.829Z,19.40
2022-08-28T18:48:47.956Z,19.40
2022-08-28T18:51:34.384Z,19.30
2022-08-28T18:54:21.471Z,19.30
2022-08-28T18:57:09.565Z,19.30
2022-08-28T18:59:57.888Z,19.10
2022-08-28T19:02:44.843Z,19.10
2022-08-28T19:05:31.973Z,19.10
2022-08-28T19:08:19.621Z,19.10
2022-08-28T19:11:08.005Z,19.00
2022-08-28T19:13:54.161Z,19.00
2022-08-28T19:16:40.181Z,18.90
2022-08-28T19:19:26.376Z,18.90
2022-08-28T19:22:13.394Z,18.90
2022-08-28T19:24:59.639Z,18.90
2022-08-28T19:27:46.807Z,18.90
2022-08-28T19:30:35.697Z,18.90
2022-08-28T19:33:21.797Z,18.90
2022-08-28T19:36:08.098Z,18.90
2022-08-28T19:38:54.444Z,18.90
2022-08-28T19:41:41.817Z,18.80
2022-08-28T19:44:27.969Z,18.70
2022-08-28T19:47:14.608Z,18.60
2022-08-28T19:50:00.941Z,18.50
2022-08-28T19:52:47.245Z,18.50
2022-08-28T19:55:33.415Z,18.40
2022-08-28T19:58:19.626Z,18.30
2022-08-28T20:01:06.123Z,18.30
2022-08-28T20:03:52.584Z,18.30
2022-08-28T20:06:39.515Z,18.30
2022-08-28T20:09:25.591Z,18.30
2022-08-28T20:12:11.782Z,18.30
2022-08-28T20:15:01.354Z,18.30
2022-08-28T20:17:50.392Z,18.20
2022-08-28T20:20:36.733Z,18.10
2022-08-28T20:23:22.785Z,18.00
2022-08-28T20:26:10.479Z,18.00
2022-08-28T20:28:56.832Z,18.00
2022-08-28T20:31:47.210Z,18.10
2022-08-28T20:34:33.677Z,18.20
2022-08-28T20:37:19.700Z,18.20
2022-08-28T20:40:09.940Z,18.20
2022-08-28T20:42:58.052Z,18.20
2022-08-28T20:45:44.004Z,18.20
2022-08-28T20:48:30.397Z,18.10
2022-08-28T20:51:16.570Z,18.00
2022-08-28T20:54:02.432Z,18.00
2022-08-28T20:56:50.656Z,18.00
2022-08-28T20:59:40.415Z,18.00
2022-08-28T21:02:28.448Z,17.90
2022-08-28T21:05:15.021Z,18.00
2022-08-28T21:08:01.069Z,18.00
2022-08-28T21:10:47.958Z,18.00
2022-08-28T21:13:33.914Z,18.00
2022-08-28T21:16:23.463Z,18.00
2022-08-28T21:19:15.875Z,18.00
2022-08-28T21:22:02.358Z,18.00
2022-08-28T21:24:50.359Z,18.00
2022-08-28T21:27:37.096Z,18.00
2022-08-28T21:30:23.570Z,18.00
2022-08-28T21:33:16.201Z,17.90
2022-08-28T21:36:06.738Z,17.70
2022-08-28T21:38:52.849Z,17.60
2022-08-28T21:41:39.847Z,17.50
2022-08-28T21:44:26.069Z,17.50
2022-08-28T21:47:11.862Z,17.50
2022-08-28T21:49:58.670Z,17.50
2022-08-28T21:52:45.601Z,17.50
2022-08-28T21:55:31.921Z,17.50
2022-08-28T21:58:19.281Z,17.50
2022-08-28T22:01:05.682Z,17.40
2022-08-28T22:03:51.951Z,17.30
2022-08-28T22:06:39.932Z,17.30
2022-08-28T22:09:26.274Z,17.40
2022-08-28T22:12:12.240Z,17.40
2022-08-28T22:14:58.068Z,17.50
2022-08-28T22:17:44.534Z,17.50
2022-08-28T22:20:31.359Z,17.50
2022-08-28T22:23:17.826Z,17.40
2022-08-28T22:26:10.690Z,17.30
2022-08-28T22:28:57.431Z,17.10
2022-08-28T22:31:45.826Z,17.00
2022-08-28T22:34:41.166Z,17.10
2022-08-28T22:37:27.625Z,17.10
2022-08-28T22:40:14.079Z,17.20
2022-08-28T22:43:00.302Z,17.10
2022-08-28T22:45:47.438Z,17.10
2022-08-28T22:48:33.668Z,17.00
2022-08-28T22:51:20.368Z,16.90
2022-08-28T22:54:06.330Z,16.90
2022-08-28T22:56:52.459Z,17.00
2022-08-28T22:59:38.509Z,17.00
2022-08-28T23:02:27.308Z,17.00
2022-08-28T23:05:14.589Z,17.00
2022-08-28T23:08:01.128Z,17.00
2022-08-28T23:10:59.053Z,16.90
2022-08-28T23:13:45.839Z,16.90
2022-08-28T23:16:31.993Z,16.80
2022-08-28T23:19:18.186Z,16.70
2022-08-28T23:22:04.816Z,16.60
2022-08-28T23:24:50.624Z,16.50
2022-08-28T23:27:37.078Z,16.50
2022-08-28T23:30:24.436Z,16.50
2022-08-28T23:33:11.781Z,16.60
2022-08-28T23:35:58.318Z,16.60
2022-08-28T23:38:45.575Z,16.50
2022-08-28T23:41:32.983Z,16.50
2022-08-28T23:44:22.449Z,16.50
2022-08-28T23:47:08.676Z,16.50
2022-08-28T23:49:54.700Z,16.60
2022-08-28T23:52:41.310Z,16.60
2022-08-28T23:55:29.440Z,16.60
2022-08-28T23:58:16.560Z,16.60
